createdAt,value
2022-08-20T00:02:03.201Z,73.30
2022-08-20T00:04:51.923Z,73.70
2022-08-20T00:07:39.942Z,73.90
2022-08-20T00:10:28.773Z,74.00
2022-08-20T00:13:23.146Z,74.00
2022-08-20T00:16:12.024Z,73.90
2022-08-20T00:19:01.705Z,72.60
2022-08-20T00:21:49.831Z,73.70
2022-08-20T00:24:38.230Z,73.40
2022-08-20T00:27:34.051Z,74.10
2022-08-20T00:33:43.314Z,73.40
2022-08-20T00:36:54.946Z,72.60
2022-08-20T00:41:03.098Z,72.20
2022-08-20T00:44:24.555Z,71.70
2022-08-20T00:47:29.725Z,74.00
2022-08-20T00:50:56.130Z,73.60
2022-08-20T00:54:12.980Z,74.10
2022-08-20T00:58:00.898Z,73.90
2022-08-20T01:01:18.889Z,73.30
2022-08-20T01:04:11.232Z,73.40
2022-08-20T01:06:58.966Z,72.40
2022-08-20T01:09:57.732Z,73.90
2022-08-20T01:12:49.340Z,73.90
2022-08-20T01:15:47.324Z,74.90
2022-08-20T01:18:35.559Z,74.60
2022-08-20T01:21:27.274Z,74.40
2022-08-20T01:24:26.611Z,74.90
2022-08-20T01:27:19.209Z,75.30
2022-08-20T01:30:13.537Z,75.30
2022-08-20T01:33:02.695Z,75.00
2022-08-20T01:35:51.620Z,75.00
2022-08-20T01:38:53.128Z,74.30
2022-08-20T01:42:02.990Z,74.50
2022-08-20T01:44:52.952Z,75.20
2022-08-20T01:47:46.011Z,75.00
2022-08-20T01:50:42.231Z,75.50
2022-08-20T01:53:35.953Z,76.10
2022-08-20T01:56:29.846Z,76.30
2022-08-20T01:59:17.871Z,76.20
2022-08-20T02:02:07.443Z,76.40
2022-08-20T02:04:55.757Z,75.80
2022-08-20T02:07:48.759Z,76.30
2022-08-20T02:10:36.842Z,76.10
2022-08-20T02:13:25.061Z,75.90
2022-08-20T02:16:13.207Z,76.00
2022-08-20T02:19:11.999Z,75.20
2022-08-20T02:22:08.228Z,76.40
2022-08-20T02:24:59.105Z,76.10
2022-08-20T02:27:49.752Z,76.40
2022-08-20T02:30:41.890Z,75.30
2022-08-20T02:33:31.696Z,74.70
2022-08-20T02:36:22.015Z,75.10
2022-08-20T02:39:13.259Z,75.70
2022-08-20T02:42:05.249Z,76.50
2022-08-20T02:44:58.885Z,76.30
2022-08-20T02:47:52.241Z,76.10
2022-08-20T02:50:44.368Z,75.40
2022-08-20T02:53:38.112Z,76.30
2022-08-20T02:56:25.938Z,77.20
2022-08-20T03:03:48.939Z,76.70
2022-08-20T03:07:46.326Z,77.60
2022-08-20T03:11:40.514Z,77.40
2022-08-20T03:14:29.021Z,76.80
2022-08-20T03:17:26.725Z,75.10
2022-08-20T03:21:14.723Z,77.00
2022-08-20T03:24:40.759Z,77.00
2022-08-20T03:27:32.732Z,77.50
2022-08-20T03:30:31.311Z,77.00
2022-08-20T03:37:24.222Z,77.60
2022-08-20T03:40:40.456Z,76.50
2022-08-20T03:43:52.826Z,78.00
2022-08-20T03:47:11.226Z,77.40
2022-08-20T03:50:54.905Z,77.60
2022-08-20T03:54:14.561Z,77.40
2022-08-20T03:58:04.248Z,76.90
2022-08-20T04:01:44.543Z,77.80
2022-08-20T04:05:20.177Z,77.90
2022-08-20T04:08:19.882Z,78.10
2022-08-20T04:11:16.669Z,78.40
2022-08-20T04:14:20.574Z,78.10
2022-08-20T04:21:54.718Z,78.90
2022-08-20T04:24:43.112Z,78.60
2022-08-20T04:33:34.035Z,79.20
2022-08-20T04:37:34.375Z,78.60
2022-08-20T04:44:40.565Z,78.20
2022-08-20T04:47:34.636Z,77.60
2022-08-20T04:50:24.682Z,77.80
2022-08-20T04:53:20.696Z,78.20
2022-08-20T04:56:10.560Z,78.60
2022-08-20T04:59:01.487Z,78.50
2022-08-20T05:01:48.762Z,78.70
2022-08-20T05:04:37.661Z,79.60
2022-08-20T05:07:26.310Z,79.60
2022-08-20T05:10:16.698Z,79.20
2022-08-20T05:13:04.129Z,79.60
2022-08-20T05:15:51.777Z,79.00
2022-08-20T05:18:39.489Z,79.00
2022-08-20T05:21:27.033Z,78.80
2022-08-20T05:24:16.493Z,79.20
2022-08-20T05:27:03.923Z,79.60
2022-08-20T05:29:53.396Z,79.80
2022-08-20T05:32:44.717Z,79.90
2022-08-20T05:35:34.835Z,79.70
2022-08-20T05:38:29.453Z,79.80
2022-08-20T05:41:27.515Z,80.20
2022-08-20T05:44:17.780Z,79.90
2022-08-20T05:47:06.290Z,79.90
2022-08-20T05:49:53.840Z,80.10
2022-08-20T05:52:41.607Z,80.20
2022-08-20T05:55:29.678Z,80.40
2022-08-20T05:58:22.546Z,80.30
2022-08-20T06:01:10.703Z,80.50
2022-08-20T06:04:16.405Z,80.20
2022-08-20T06:07:06.681Z,79.70
2022-08-20T06:09:54.178Z,80.10
2022-08-20T06:12:44.409Z,79.60
2022-08-20T06:15:34.755Z,80.00
2022-08-20T06:18:28.319Z,80.20
2022-08-20T06:21:16.392Z,80.50
2022-08-20T06:24:03.931Z,79.80
2022-08-20T06:26:57.450Z,80.10
2022-08-20T06:29:44.800Z,78.40
2022-08-20T06:32:33.636Z,78.70
2022-08-20T06:35:21.229Z,80.60
2022-08-20T06:38:12.525Z,79.40
2022-08-20T06:41:00.294Z,79.80
2022-08-20T06:43:47.937Z,80.10
2022-08-20T06:46:36.217Z,80.70
2022-08-20T06:49:24.937Z,80.50
2022-08-20T06:52:15.880Z,81.20
2022-08-20T06:55:04.405Z,81.50
2022-08-20T06:57:59.665Z,82.10
2022-08-20T07:00:48.139Z,83.30
2022-08-20T07:03:38.066Z,82.80
2022-08-20T07:06:27.933Z,82.70
2022-08-20T07:09:15.281Z,82.80
2022-08-20T07:12:02.566Z,83.80
2022-08-20T07:14:51.007Z,83.30
2022-08-20T07:17:39.815Z,83.40
2022-08-20T07:20:28.148Z,83.40
2022-08-20T07:23:16.802Z,83.00
2022-08-20T07:26:04.443Z,83.50
2022-08-20T07:28:52.122Z,82.90
2022-08-20T07:31:56.971Z,82.90
2022-08-20T07:34:44.779Z,83.30
2022-08-20T07:37:32.149Z,83.50
2022-08-20T07:40:26.297Z,83.80
2022-08-20T07:43:15.674Z,84.40
2022-08-20T07:46:09.402Z,84.80
2022-08-20T07:48:57.301Z,84.60
2022-08-20T07:51:44.661Z,84.50
2022-08-20T07:54:32.235Z,84.50
2022-08-20T07:57:21.214Z,84.00
2022-08-20T08:00:12.358Z,84.00
2022-08-20T08:03:00.185Z,84.80
2022-08-20T08:05:51.867Z,84.30
2022-08-20T08:08:41.529Z,85.00
2022-08-20T08:11:29.842Z,85.20
2022-08-20T08:14:24.844Z,85.20
2022-08-20T08:17:12.618Z,85.50
2022-08-20T08:20:00.341Z,84.90
2022-08-20T08:22:47.784Z,85.00
2022-08-20T08:25:35.452Z,85.20
2022-08-20T08:28:22.918Z,85.00
2022-08-20T08:31:12.187Z,86.20
2022-08-20T08:33:59.409Z,86.00
2022-08-20T08:36:46.675Z,84.90
2022-08-20T08:39:35.278Z,85.00
2022-08-20T08:42:30.047Z,85.70
2022-08-20T08:45:20.026Z,87.10
2022-08-20T08:48:09.500Z,86.50
2022-08-20T08:51:12.391Z,86.30
2022-08-20T08:54:06.009Z,86.90
2022-08-20T08:56:54.776Z,86.90
2022-08-20T08:59:52.235Z,86.40
2022-08-20T09:03:04.679Z,86.60
2022-08-20T09:05:59.926Z,87.10
2022-08-20T09:08:53.025Z,87.00
2022-08-20T09:11:50.192Z,86.50
2022-08-20T09:14:38.671Z,87.20
2022-08-20T09:17:26.661Z,87.70
2022-08-20T09:20:14.346Z,87.30
2022-08-20T09:23:03.070Z,86.70
2022-08-20T09:25:50.526Z,86.30
2022-08-20T09:28:38.893Z,85.60
2022-08-20T09:31:26.214Z,86.60
2022-08-20T09:34:14.627Z,86.80
2022-08-20T09:37:02.212Z,86.80
2022-08-20T09:39:51.200Z,87.10
2022-08-20T09:42:41.588Z,86.90
2022-08-20T09:45:29.560Z,86.90
2022-08-20T09:48:16.887Z,86.80
2022-08-20T09:51:04.756Z,87.10
2022-08-20T09:53:52.925Z,86.70
2022-08-20T09:56:41.601Z,86.60
2022-08-20T09:59:30.179Z,86.00
2022-08-20T10:02:18.012Z,86.70
2022-08-20T10:05:06.590Z,86.30
2022-08-20T10:07:56.865Z,86.40
2022-08-20T10:10:44.708Z,86.60
2022-08-20T10:13:33.335Z,86.90
2022-08-20T10:16:20.829Z,87.30
2022-08-20T10:19:09.831Z,87.40
2022-08-20T10:21:57.594Z,87.40
2022-08-20T10:24:44.974Z,88.10
2022-08-20T10:27:32.362Z,87.40
2022-08-20T10:30:27.319Z,87.30
2022-08-20T10:33:18.275Z,87.70
2022-08-20T10:36:10.768Z,88.10
2022-08-20T10:38:58.100Z,88.40
2022-08-20T10:41:45.276Z,87.80
2022-08-20T10:44:32.488Z,88.40
2022-08-20T10:47:24.893Z,88.70
2022-08-20T10:50:17.296Z,89.10
2022-08-20T10:53:04.703Z,89.00
2022-08-20T10:55:52.006Z,89.40
2022-08-20T10:58:41.297Z,88.70
2022-08-20T11:01:32.929Z,87.80
2022-08-20T11:04:23.028Z,87.40
2022-08-20T11:07:21.795Z,86.60
2022-08-20T11:10:33.280Z,88.00
2022-08-20T11:13:21.095Z,86.40
2022-08-20T11:16:09.739Z,86.80
2022-08-20T11:18:57.819Z,86.70
2022-08-20T11:21:46.630Z,87.10
2022-08-20T11:24:34.342Z,87.20
2022-08-20T11:27:28.234Z,87.00
2022-08-20T11:30:19.731Z,86.70
2022-08-20T11:33:08.697Z,85.00
2022-08-20T11:35:56.540Z,85.50
2022-08-20T11:38:45.266Z,85.80
2022-08-20T11:41:32.998Z,85.40
2022-08-20T11:44:21.700Z,85.50
2022-08-20T11:47:11.920Z,85.20
2022-08-20T11:50:01.635Z,84.70
2022-08-20T11:52:49.146Z,85.10
2022-08-20T11:55:39.083Z,83.00
2022-08-20T11:58:26.258Z,83.60
2022-08-20T12:01:13.992Z,83.30
2022-08-20T12:04:01.478Z,82.10
2022-08-20T12:06:48.834Z,81.10
2022-08-20T12:09:36.430Z,81.30
2022-08-20T12:12:30.041Z,81.80
2022-08-20T12:15:17.696Z,82.00
2022-08-20T12:18:08.456Z,82.00
2022-08-20T12:20:56.146Z,81.30
2022-08-20T12:23:43.543Z,81.70
2022-08-20T12:26:31.068Z,81.40
2022-08-20T12:29:20.066Z,81.10
2022-08-20T12:32:08.842Z,78.70
2022-08-20T12:34:57.387Z,80.10
2022-08-20T12:37:47.087Z,78.50
2022-08-20T12:40:36.200Z,78.80
2022-08-20T12:43:25.152Z,77.90
2022-08-20T12:46:13.991Z,76.50
2022-08-20T12:49:01.400Z,78.30
2022-08-20T12:51:48.791Z,78.30
2022-08-20T12:54:36.505Z,77.40
2022-08-20T12:57:30.597Z,78.90
2022-08-20T13:00:22.650Z,79.30
2022-08-20T13:03:14.086Z,78.00
2022-08-20T13:06:02.763Z,76.70
2022-08-20T13:08:50.168Z,76.80
2022-08-20T13:11:37.533Z,77.50
2022-08-20T13:14:25.840Z,77.20
2022-08-20T13:17:13.571Z,76.70
2022-08-20T13:20:02.397Z,76.60
2022-08-20T13:22:50.137Z,76.60
2022-08-20T13:25:37.717Z,76.00
2022-08-20T13:28:24.988Z,76.00
2022-08-20T13:31:12.444Z,76.20
2022-08-20T13:34:00.437Z,75.30
2022-08-20T13:36:49.062Z,73.80
2022-08-20T13:39:40.245Z,73.30
2022-08-20T13:42:28.544Z,72.50
2022-08-20T13:45:15.898Z,73.70
2022-08-20T13:48:03.697Z,72.40
2022-08-20T13:50:51.742Z,71.00
2022-08-20T13:53:43.658Z,70.40
2022-08-20T13:56:31.443Z,70.50
2022-08-20T13:59:18.795Z,69.40
2022-08-20T14:02:07.672Z,68.30
2022-08-20T14:04:56.229Z,65.80
2022-08-20T14:07:44.387Z,66.80
2022-08-20T14:10:33.125Z,66.70
2022-08-20T14:13:23.618Z,66.40
2022-08-20T14:16:21.345Z,67.30
2022-08-20T14:19:15.402Z,67.80
2022-08-20T14:22:02.788Z,67.40
2022-08-20T14:24:50.738Z,67.10
2022-08-20T14:27:40.348Z,66.10
2022-08-20T14:30:31.544Z,65.40
2022-08-20T14:33:19.082Z,66.50
2022-08-20T14:36:07.022Z,67.00
2022-08-20T14:38:54.516Z,66.40
2022-08-20T14:41:41.839Z,66.50
2022-08-20T14:44:30.673Z,66.20
2022-08-20T14:47:22.486Z,64.80
2022-08-20T14:50:14.046Z,64.10
2022-08-20T14:53:02.538Z,64.20
2022-08-20T14:55:50.116Z,64.70
2022-08-20T14:58:37.404Z,64.20
2022-08-20T15:01:26.247Z,65.70
2022-08-20T15:04:13.870Z,65.60
2022-08-20T15:07:10.962Z,64.70
2022-08-20T15:10:01.987Z,63.30
2022-08-20T15:12:49.545Z,64.30
2022-08-20T15:15:37.073Z,63.80
2022-08-20T15:18:26.974Z,63.90
2022-08-20T15:21:17.206Z,63.10
2022-08-20T15:24:15.807Z,62.80
2022-08-20T15:27:17.105Z,63.20
2022-08-20T15:30:12.429Z,62.20
2022-08-20T15:33:00.526Z,62.00
2022-08-20T15:35:50.218Z,62.40
2022-08-20T15:38:38.463Z,61.80
2022-08-20T15:41:30.406Z,63.10
2022-08-20T15:44:22.889Z,60.90
2022-08-20T15:47:22.054Z,61.20
2022-08-20T15:50:14.926Z,61.40
2022-08-20T15:53:11.019Z,58.50
2022-08-20T15:56:10.360Z,58.10
2022-08-20T15:59:25.997Z,60.90
2022-08-20T16:02:49.632Z,60.40
2022-08-20T16:05:50.102Z,59.80
2022-08-20T16:09:16.511Z,60.30
2022-08-20T16:12:11.525Z,60.00
2022-08-20T16:15:03.893Z,60.80
2022-08-20T16:18:00.769Z,60.30
2022-08-20T16:20:50.846Z,58.90
2022-08-20T16:23:41.001Z,59.30
2022-08-20T16:26:59.643Z,58.90
2022-08-20T16:30:00.074Z,59.20
2022-08-20T16:32:52.484Z,60.50
2022-08-20T16:35:53.054Z,58.90
2022-08-20T16:38:47.253Z,58.60
2022-08-20T16:41:41.513Z,57.80
2022-08-20T16:44:34.576Z,57.10
2022-08-20T16:47:28.590Z,56.90
2022-08-20T16:50:21.764Z,58.00
2022-08-20T16:53:17.585Z,56.90
2022-08-20T16:56:06.113Z,58.20
2022-08-20T16:58:55.257Z,57.20
2022-08-20T17:01:43.112Z,57.10
2022-08-20T17:04:30.450Z,57.70
2022-08-20T17:07:33.237Z,57.10
2022-08-20T17:10:25.217Z,58.40
2022-08-20T17:13:28.174Z,58.00
2022-08-20T17:16:23.329Z,57.40
2022-08-20T17:19:21.298Z,57.30
2022-08-20T17:22:11.780Z,58.40
2022-08-20T17:24:59.712Z,56.10
2022-08-20T17:27:48.704Z,58.90
2022-08-20T17:30:40.062Z,58.90
2022-08-20T17:33:35.085Z,58.70
2022-08-20T17:36:26.226Z,59.20
2022-08-20T17:39:20.385Z,58.80
2022-08-20T17:42:11.803Z,57.60
2022-08-20T17:45:17.664Z,58.20
2022-08-20T17:48:10.967Z,58.70
2022-08-20T17:51:02.034Z,57.40
2022-08-20T17:53:56.324Z,60.20
2022-08-20T17:56:45.304Z,59.30
2022-08-20T18:00:00.818Z,57.50
2022-08-20T18:02:45.466Z,58.10
2022-08-20T18:05:36.972Z,58.40
2022-08-20T18:08:38.654Z,58.50
2022-08-20T18:11:31.814Z,57.70
2022-08-20T18:14:46.626Z,57.30
2022-08-20T18:18:14.161Z,58.40
2022-08-20T18:21:24.556Z,58.60
2022-08-20T18:24:18.930Z,59.90
2022-08-20T18:27:13.690Z,59.50
2022-08-20T18:30:02.490Z,59.10
2022-08-20T18:33:02.340Z,59.60
2022-08-20T18:35:49.887Z,59.80
2022-08-20T18:38:41.909Z,59.80
2022-08-20T18:41:34.338Z,60.00
2022-08-20T18:44:31.467Z,60.30
2022-08-20T18:47:24.568Z,61.30
2022-08-20T18:50:23.387Z,60.80
2022-08-20T18:53:19.811Z,61.20
2022-08-20T18:56:11.913Z,60.00
2022-08-20T18:59:09.318Z,59.60
2022-08-20T19:01:56.934Z,60.00
2022-08-20T19:04:52.801Z,61.00
2022-08-20T19:07:53.325Z,61.10
2022-08-20T19:10:49.511Z,61.10
2022-08-20T19:13:52.384Z,60.70
2022-08-20T19:16:46.049Z,61.00
2022-08-20T19:19:34.254Z,61.50
2022-08-20T19:22:22.483Z,61.40
2022-08-20T19:25:22.597Z,62.30
2022-08-20T19:28:22.038Z,62.60
2022-08-20T19:31:16.505Z,63.10
2022-08-20T19:34:19.883Z,63.10
2022-08-20T19:37:35.824Z,63.40
2022-08-20T19:40:35.081Z,61.60
2022-08-20T19:43:26.567Z,62.90
2022-08-20T19:46:17.686Z,60.80
2022-08-20T19:49:21.563Z,61.80
2022-08-20T19:52:38.129Z,63.50
2022-08-20T19:55:30.362Z,61.70
2022-08-20T19:58:26.668Z,62.40
2022-08-20T20:01:20.453Z,60.90
2022-08-20T20:04:18.798Z,63.30
2022-08-20T20:07:10.032Z,62.50
2022-08-20T20:09:59.429Z,61.90
2022-08-20T20:12:49.003Z,62.20
2022-08-20T20:15:37.210Z,62.80
2022-08-20T20:18:30.501Z,62.70
2022-08-20T20:21:26.465Z,63.20
2022-08-20T20:24:24.791Z,61.30
2022-08-20T20:27:20.145Z,63.70
2022-08-20T20:30:13.366Z,63.10
2022-08-20T20:33:10.918Z,62.60
2022-08-20T20:36:07.465Z,61.60
2022-08-20T20:39:03.319Z,62.90
2022-08-20T20:41:54.917Z,63.50
2022-08-20T20:44:44.740Z,63.50
2022-08-20T20:47:34.695Z,63.20
2022-08-20T20:50:34.861Z,63.60
2022-08-20T20:53:53.198Z,62.60
2022-08-20T20:56:44.176Z,62.80
2022-08-20T20:59:34.526Z,62.10
2022-08-20T21:02:23.534Z,63.00
2022-08-20T21:05:12.125Z,63.30
2022-08-20T21:08:03.109Z,63.50
2022-08-20T21:10:50.241Z,63.90
2022-08-20T21:13:39.779Z,63.10
2022-08-20T21:16:32.098Z,63.70
2022-08-20T21:19:19.822Z,63.80
2022-08-20T21:22:09.259Z,63.90
2022-08-20T21:24:56.688Z,63.30
2022-08-20T21:27:48.507Z,63.40
2022-08-20T21:30:37.265Z,63.40
2022-08-20T21:33:24.817Z,63.80
2022-08-20T21:36:12.730Z,63.30
2022-08-20T21:39:00.114Z,63.80
2022-08-20T21:41:47.718Z,64.10
2022-08-20T21:44:36.102Z,64.20
2022-08-20T21:47:25.728Z,64.50
2022-08-20T21:50:15.432Z,64.90
2022-08-20T21:53:12.238Z,64.80
2022-08-20T21:56:01.182Z,64.80
2022-08-20T21:58:50.488Z,64.30
2022-08-20T22:01:41.154Z,64.50
2022-08-20T22:04:34.905Z,64.40
2022-08-20T22:07:23.588Z,65.00
2022-08-20T22:10:11.960Z,63.60
2022-08-20T22:12:59.917Z,64.80
2022-08-20T22:15:47.597Z,64.00
2022-08-20T22:18:35.037Z,64.80
2022-08-20T22:21:27.202Z,64.00
2022-08-20T22:24:15.758Z,65.20
2022-08-20T22:27:03.194Z,64.90
2022-08-20T22:29:51.108Z,64.20
2022-08-20T22:32:52.396Z,65.30
2022-08-20T22:35:52.211Z,64.50
2022-08-20T22:38:41.168Z,65.30
2022-08-20T22:41:28.802Z,65.20
2022-08-20T22:44:16.434Z,66.20
2022-08-20T22:47:08.984Z,65.80
2022-08-20T22:49:58.906Z,65.40
2022-08-20T22:52:46.436Z,65.80
2022-08-20T22:55:35.955Z,65.40
2022-08-20T22:58:31.103Z,66.00
2022-08-20T23:01:19.673Z,65.80
2022-08-20T23:04:14.758Z,65.90
2022-08-20T23:07:10.442Z,65.90
2022-08-20T23:10:00.230Z,66.30
2022-08-20T23:12:49.327Z,65.90
2022-08-20T23:15:45.674Z,66.20
2022-08-20T23:18:33.435Z,66.60
2022-08-20T23:21:20.926Z,66.10
2022-08-20T23:24:08.377Z,66.10
2022-08-20T23:27:01.931Z,66.60
2022-08-20T23:29:51.036Z,67.40
2022-08-20T23:32:38.533Z,65.10
2022-08-20T23:35:29.833Z,66.20
2022-08-20T23:38:20.444Z,66.00
2022-08-20T23:41:08.147Z,65.40
2022-08-20T23:43:55.618Z,66.00
2022-08-20T23:46:44.541Z,66.30
2022-08-20T23:49:33.396Z,66.30
2022-08-20T23:52:20.569Z,66.80
2022-08-20T23:55:09.305Z,66.70
2022-08-20T23:57:56.925Z,67.00
